Terminal Aerodrome Forecast
Issued by NWS Springfield, MO

Home | Current Version | Previous Version | Text Only | Print | Product List | Glossary On
Versions: 1 2 3 4 5 6 7 8 9 10 11 12 13 14 15 16 17
000
FTUS43 KSGF 261100
TAFSGF
TAF
KSGF 261120Z 2612/2712 34020G26KT P6SM OVC015
      TEMPO 2612/2615 5SM -SN
     FM261500 35016G22KT P6SM OVC025
     FM262000 35012G18KT P6SM BKN050
     FM270000 36009KT P6SM SCT250=

USA.gov is the U.S. government's official web portal to all federal, state and local government web resources and services.